createdAt,value
2017-11-16T00:01:54.578Z,24.13
2017-11-16T00:04:22.174Z,25.70
2017-11-16T00:06:49.797Z,26.80
2017-11-16T00:09:17.394Z,27.77
2017-11-16T00:11:45.016Z,25.43
2017-11-16T00:14:12.618Z,27.77
2017-11-16T00:16:40.263Z,26.47
2017-11-16T00:19:08.609Z,27.60
2017-11-16T00:21:36.213Z,27.93
2017-11-16T00:24:03.847Z,26.57
2017-11-16T00:26:31.565Z,25.07
2017-11-16T00:28:59.219Z,22.67
2017-11-16T00:31:27.587Z,25.57
2017-11-16T00:33:55.215Z,26.23
2017-11-16T00:36:22.925Z,26.30
2017-11-16T00:38:51.407Z,27.17
2017-11-16T00:41:19.782Z,26.40
2017-11-16T00:43:47.402Z,26.60
2017-11-16T00:46:15.110Z,25.23
2017-11-16T00:48:42.729Z,27.80
2017-11-16T00:51:10.334Z,24.90
2017-11-16T00:53:37.961Z,24.33
2017-11-16T00:56:05.554Z,25.87
2017-11-16T00:58:33.174Z,24.30
2017-11-16T01:01:00.799Z,26.40
2017-11-16T01:03:29.175Z,24.87
2017-11-16T01:05:57.644Z,24.30
2017-11-16T01:08:25.242Z,22.83
2017-11-16T01:10:52.966Z,23.60
2017-11-16T01:13:20.630Z,25.87
2017-11-16T01:15:48.254Z,25.33
2017-11-16T01:18:15.854Z,25.77
2017-11-16T01:20:43.475Z,26.57
2017-11-16T01:23:11.078Z,25.70
2017-11-16T01:25:39.480Z,25.13
2017-11-16T01:28:07.090Z,25.03
2017-11-16T01:30:34.714Z,27.30
2017-11-16T01:33:02.355Z,24.30
2017-11-16T01:35:30.723Z,22.43
2017-11-16T01:37:58.391Z,25.40
2017-11-16T01:40:26.049Z,25.63
2017-11-16T01:42:53.723Z,25.33
2017-11-16T01:45:22.094Z,24.70
2017-11-16T01:47:50.486Z,24.60
2017-11-16T01:50:18.853Z,23.63
2017-11-16T01:52:47.245Z,25.97
2017-11-16T01:55:15.724Z,23.77
2017-11-16T01:57:44.118Z,25.07
2017-11-16T02:00:12.579Z,23.87
2017-11-16T02:02:41.007Z,22.37
2017-11-16T02:05:08.622Z,23.00
2017-11-16T02:07:37.206Z,22.70
2017-11-16T02:10:04.801Z,24.50
2017-11-16T02:12:32.443Z,25.37
2017-11-16T02:15:00.815Z,23.93
2017-11-16T02:17:29.295Z,25.30
2017-11-16T02:19:57.690Z,22.13
2017-11-16T02:22:26.054Z,25.90
2017-11-16T02:24:53.719Z,25.03
2017-11-16T02:27:22.091Z,25.40
2017-11-16T02:29:49.758Z,24.23
2017-11-16T02:32:17.431Z,22.17
2017-11-16T02:34:45.822Z,25.90
2017-11-16T02:37:14.290Z,24.43
2017-11-16T02:39:42.685Z,26.03
2017-11-16T02:42:11.148Z,25.00
2017-11-16T02:44:39.533Z,25.17
2017-11-16T02:47:07.899Z,26.40
2017-11-16T02:49:35.566Z,27.33
2017-11-16T02:52:03.231Z,25.33
2017-11-16T02:54:30.850Z,23.10
2017-11-16T02:56:58.454Z,24.13
2017-11-16T02:59:26.083Z,24.00
2017-11-16T03:01:53.677Z,23.47
2017-11-16T03:04:21.343Z,24.33
2017-11-16T03:06:49.018Z,23.20
2017-11-16T03:09:17.487Z,23.80
2017-11-16T03:11:45.150Z,27.03
2017-11-16T03:14:12.814Z,24.20
2017-11-16T03:16:41.201Z,21.67
2017-11-16T03:19:09.679Z,24.67
2017-11-16T03:21:38.074Z,24.00
2017-11-16T03:24:06.446Z,23.80
2017-11-16T03:26:34.835Z,22.30
2017-11-16T03:29:03.303Z,20.83
2017-11-16T03:31:31.687Z,25.10
2017-11-16T03:34:00.051Z,23.60
2017-11-16T03:36:27.717Z,23.17
2017-11-16T03:38:55.319Z,21.47
2017-11-16T03:41:22.945Z,23.07
2017-11-16T03:43:50.555Z,22.97
2017-11-16T03:46:18.202Z,20.50
2017-11-16T03:48:45.833Z,22.67
2017-11-16T03:51:14.201Z,21.97
2017-11-16T03:53:42.587Z,21.87
2017-11-16T03:56:10.254Z,20.60
2017-11-16T03:58:38.733Z,21.07
2017-11-16T04:01:06.334Z,20.50
2017-11-16T04:03:34.063Z,19.30
2017-11-16T04:06:01.666Z,17.57
2017-11-16T04:08:29.287Z,17.77
2017-11-16T04:10:56.945Z,17.30
2017-11-16T04:13:24.614Z,17.47
2017-11-16T04:15:52.989Z,18.77
2017-11-16T04:18:20.614Z,19.10
2017-11-16T04:20:48.211Z,16.53
2017-11-16T04:23:15.878Z,19.30
2017-11-16T04:25:43.477Z,18.73
2017-11-16T04:28:11.109Z,16.67
2017-11-16T04:30:39.587Z,19.43
2017-11-16T04:33:07.974Z,18.47
2017-11-16T04:35:36.451Z,21.03
2017-11-16T04:38:04.837Z,22.03
2017-11-16T04:40:33.212Z,17.47
2017-11-16T04:43:01.687Z,19.87
2017-11-16T04:45:30.066Z,18.57
2017-11-16T04:47:57.730Z,18.10
2017-11-16T04:50:25.354Z,18.57
2017-11-16T04:52:52.955Z,17.60
2017-11-16T04:55:20.618Z,17.10
2017-11-16T04:57:48.987Z,19.70
2017-11-16T05:00:16.659Z,20.67
2017-11-16T05:02:44.258Z,18.00
2017-11-16T05:05:11.892Z,16.70
2017-11-16T05:07:40.268Z,16.00
2017-11-16T05:10:08.661Z,19.00
2017-11-16T05:12:37.035Z,17.43
2017-11-16T05:15:05.434Z,19.60
2017-11-16T05:17:33.043Z,19.73
2017-11-16T05:20:00.647Z,18.30
2017-11-16T05:22:28.297Z,21.00
2017-11-16T05:24:56.769Z,19.40
2017-11-16T05:27:24.386Z,19.60
2017-11-16T05:29:51.986Z,21.60
2017-11-16T05:32:19.602Z,18.07
2017-11-16T05:34:47.284Z,19.93
2017-11-16T05:37:14.910Z,19.23
2017-11-16T05:39:42.551Z,19.20
2017-11-16T05:42:10.946Z,19.30
2017-11-16T05:44:39.410Z,18.90
2017-11-16T05:47:07.033Z,18.87
2017-11-16T05:49:34.631Z,18.73
2017-11-16T05:52:02.255Z,19.87
2017-11-16T05:54:29.964Z,19.83
2017-11-16T05:56:58.438Z,20.40
2017-11-16T05:59:26.102Z,18.50
2017-11-16T06:01:53.704Z,19.47
2017-11-16T06:04:21.334Z,17.37
2017-11-16T06:06:49.805Z,16.90
2017-11-16T06:09:17.425Z,19.37
2017-11-16T06:11:45.135Z,21.40
2017-11-16T06:14:12.798Z,21.50
2017-11-16T06:16:40.402Z,20.00
2017-11-16T06:19:08.113Z,19.93
2017-11-16T06:21:35.786Z,20.43
2017-11-16T06:24:03.460Z,18.73
2017-11-16T06:26:31.839Z,19.20
2017-11-16T06:29:00.229Z,19.20
2017-11-16T06:31:28.692Z,17.93
2017-11-16T06:33:56.413Z,17.03
2017-11-16T06:36:24.021Z,18.63
2017-11-16T06:38:52.501Z,20.13
2017-11-16T06:41:20.162Z,21.40
2017-11-16T06:43:47.758Z,20.87
2017-11-16T06:46:15.383Z,18.27
2017-11-16T06:48:43.754Z,18.33
2017-11-16T06:51:12.878Z,19.67
2017-11-16T06:53:41.241Z,18.90
2017-11-16T06:56:08.907Z,20.30
2017-11-16T06:58:37.387Z,20.50
2017-11-16T07:01:05.055Z,19.63
2017-11-16T07:03:33.537Z,23.10
2017-11-16T07:06:01.935Z,22.27
2017-11-16T07:08:30.394Z,21.40
2017-11-16T07:10:58.015Z,22.97
2017-11-16T07:13:25.724Z,23.33
2017-11-16T07:15:54.207Z,24.73
2017-11-16T07:18:22.581Z,25.97
2017-11-16T07:20:50.250Z,20.73
2017-11-16T07:23:18.634Z,20.00
2017-11-16T07:25:47.091Z,18.47
2017-11-16T07:28:14.690Z,16.67
2017-11-16T07:30:43.150Z,16.77
2017-11-16T07:33:10.769Z,16.40
2017-11-16T07:35:38.372Z,15.57
2017-11-16T07:38:05.992Z,14.77
2017-11-16T07:40:33.582Z,18.27
2017-11-16T07:43:02.037Z,14.30
2017-11-16T07:45:29.625Z,16.80
2017-11-16T07:47:58.011Z,16.83
2017-11-16T07:50:26.379Z,14.97
2017-11-16T07:52:53.994Z,18.00
2017-11-16T07:55:21.594Z,16.03
2017-11-16T07:57:49.222Z,14.93
2017-11-16T08:00:16.814Z,15.20
2017-11-16T08:02:44.434Z,15.40
2017-11-16T08:05:12.894Z,13.87
2017-11-16T08:07:41.329Z,13.57
2017-11-16T08:10:08.923Z,13.63
2017-11-16T08:12:38.041Z,11.73
2017-11-16T08:15:06.513Z,10.83
2017-11-16T08:17:34.154Z,13.07
2017-11-16T08:20:02.354Z,11.60
2017-11-16T08:22:30.718Z,11.97
2017-11-16T08:24:59.214Z,12.37
2017-11-16T08:27:26.805Z,11.67
2017-11-16T08:29:54.417Z,12.40
2017-11-16T08:32:22.094Z,12.07
2017-11-16T08:34:49.763Z,12.50
2017-11-16T08:37:17.362Z,12.67
2017-11-16T08:39:45.091Z,12.40
2017-11-16T08:42:13.468Z,11.17
2017-11-16T08:44:41.190Z,13.90
2017-11-16T08:47:08.796Z,14.83
2017-11-16T08:49:37.181Z,13.10
2017-11-16T08:52:05.657Z,13.57
2017-11-16T08:54:33.278Z,14.10
2017-11-16T08:57:00.990Z,14.70
2017-11-16T08:59:29.357Z,13.20
2017-11-16T09:01:57.027Z,13.50
2017-11-16T09:04:24.747Z,13.90
2017-11-16T09:06:52.362Z,12.87
2017-11-16T09:09:20.833Z,13.73
2017-11-16T09:11:48.493Z,14.83
2017-11-16T09:14:16.090Z,13.60
2017-11-16T09:16:43.713Z,14.60
2017-11-16T09:19:11.380Z,14.10
2017-11-16T09:21:39.003Z,13.00
2017-11-16T09:24:06.602Z,12.90
2017-11-16T09:26:34.270Z,14.77
2017-11-16T09:29:01.869Z,14.90
2017-11-16T09:31:29.557Z,14.70
2017-11-16T09:33:57.462Z,15.40
2017-11-16T09:36:25.125Z,16.87
2017-11-16T09:38:52.790Z,14.97
2017-11-16T09:41:20.427Z,17.30
2017-11-16T09:43:48.114Z,17.70
2017-11-16T09:46:15.786Z,14.60
2017-11-16T09:48:44.178Z,17.57
2017-11-16T09:51:12.637Z,15.97
2017-11-16T09:53:41.843Z,14.60
2017-11-16T09:56:10.214Z,14.97
2017-11-16T09:58:37.866Z,16.80
2017-11-16T10:01:06.229Z,15.47
2017-11-16T10:03:33.925Z,15.73
2017-11-16T10:06:01.648Z,17.07
2017-11-16T10:08:29.310Z,22.03
2017-11-16T10:10:56.905Z,23.57
2017-11-16T10:13:25.455Z,23.80
2017-11-16T10:15:53.051Z,17.73
2017-11-16T10:18:20.660Z,25.10
2017-11-16T10:20:48.386Z,16.93
2017-11-16T10:23:17.586Z,16.57
2017-11-16T10:25:46.071Z,15.70
2017-11-16T10:28:14.438Z,16.10
2017-11-16T10:30:42.064Z,16.47
2017-11-16T10:33:09.657Z,17.60
2017-11-16T10:35:37.392Z,16.00
2017-11-16T10:38:04.999Z,17.23
2017-11-16T10:40:33.391Z,16.73
2017-11-16T10:43:01.759Z,17.93
2017-11-16T10:45:30.152Z,17.33
2017-11-16T10:47:58.622Z,27.87
2017-11-16T10:50:27.010Z,18.73
2017-11-16T10:52:55.379Z,19.97
2017-11-16T10:55:22.977Z,16.90
2017-11-16T10:57:50.597Z,16.90
2017-11-16T11:00:18.194Z,17.87
2017-11-16T11:02:45.927Z,17.80
2017-11-16T11:05:13.591Z,18.47
2017-11-16T11:07:41.255Z,18.43
2017-11-16T11:10:08.868Z,16.17
2017-11-16T11:12:36.578Z,17.27
2017-11-16T11:15:04.175Z,16.97
2017-11-16T11:17:31.901Z,16.17
2017-11-16T11:19:59.626Z,16.80
2017-11-16T11:22:27.252Z,15.13
2017-11-16T11:24:55.714Z,16.43
2017-11-16T11:27:24.107Z,15.80
2017-11-16T11:29:51.736Z,15.90
2017-11-16T11:32:19.358Z,16.40
2017-11-16T11:34:46.977Z,17.30
2017-11-16T11:37:14.574Z,16.63
2017-11-16T11:39:42.195Z,16.17
2017-11-16T11:42:09.867Z,16.80
2017-11-16T11:44:37.491Z,16.37
2017-11-16T11:47:05.195Z,18.17
2017-11-16T11:49:33.591Z,16.70
2017-11-16T11:52:01.971Z,16.97
2017-11-16T11:54:31.256Z,14.30
2017-11-16T11:56:59.624Z,17.60
2017-11-16T11:59:27.246Z,16.33
2017-11-16T12:01:54.844Z,16.23
2017-11-16T12:04:22.479Z,17.00
2017-11-16T12:06:50.083Z,17.50
2017-11-16T12:09:18.564Z,18.50
2017-11-16T12:11:46.941Z,24.33
2017-11-16T12:14:15.309Z,23.60
2017-11-16T12:16:43.044Z,24.20
2017-11-16T12:19:10.751Z,19.57
2017-11-16T12:21:38.375Z,24.97
2017-11-16T12:24:05.973Z,23.10
2017-11-16T12:26:33.633Z,22.27
2017-11-16T12:29:02.738Z,11.90
2017-11-16T12:31:31.136Z,21.03
2017-11-16T12:33:58.742Z,19.30
2017-11-16T12:36:26.369Z,20.27
2017-11-16T12:38:53.966Z,23.73
2017-11-16T12:41:21.585Z,22.70
2017-11-16T12:43:49.189Z,19.03
2017-11-16T12:46:16.885Z,24.50
2017-11-16T12:48:44.481Z,22.23
2017-11-16T12:51:12.073Z,15.27
2017-11-16T12:53:40.458Z,16.40
2017-11-16T12:56:08.058Z,16.50
2017-11-16T12:58:36.546Z,16.30
2017-11-16T13:01:04.920Z,16.47
2017-11-16T13:03:33.309Z,19.83
2017-11-16T13:06:01.671Z,14.20
2017-11-16T13:08:30.161Z,15.43
2017-11-16T13:10:58.636Z,12.73
2017-11-16T13:13:26.302Z,15.60
2017-11-16T13:15:54.777Z,14.10
2017-11-16T13:18:22.402Z,13.63
2017-11-16T13:20:49.989Z,13.73
2017-11-16T13:23:17.618Z,14.27
2017-11-16T13:25:45.209Z,16.57
2017-11-16T13:28:12.890Z,18.23
2017-11-16T13:30:41.364Z,18.07
2017-11-16T13:33:09.029Z,16.63
2017-11-16T13:35:36.649Z,17.00
2017-11-16T13:38:04.245Z,15.73
2017-11-16T13:40:31.861Z,19.27
2017-11-16T13:42:59.542Z,17.20
2017-11-16T13:45:27.161Z,16.67
2017-11-16T13:47:55.521Z,17.30
2017-11-16T13:50:23.146Z,21.40
2017-11-16T13:52:50.751Z,20.70
2017-11-16T13:55:18.410Z,23.23
2017-11-16T13:57:46.076Z,20.50
2017-11-16T14:00:13.733Z,24.23
2017-11-16T14:02:41.339Z,32.93
2017-11-16T14:05:09.059Z,34.00
2017-11-16T14:07:37.438Z,23.00
2017-11-16T14:10:05.106Z,20.47
2017-11-16T14:12:32.703Z,20.83
2017-11-16T14:15:00.389Z,20.03
2017-11-16T14:17:28.000Z,20.93
2017-11-16T14:19:56.395Z,21.87
2017-11-16T14:22:24.825Z,23.10
2017-11-16T14:24:52.413Z,23.37
2017-11-16T14:27:20.025Z,21.40
2017-11-16T14:29:47.639Z,22.90
2017-11-16T14:32:15.263Z,23.40
2017-11-16T14:34:42.862Z,22.80
2017-11-16T14:37:10.522Z,21.43
2017-11-16T14:39:38.131Z,35.80
2017-11-16T14:42:05.750Z,28.70
2017-11-16T14:44:34.226Z,30.97
2017-11-16T14:47:01.842Z,23.60
2017-11-16T14:49:29.437Z,21.00
2017-11-16T14:51:57.074Z,24.67
2017-11-16T14:54:24.666Z,22.60
2017-11-16T14:56:52.282Z,22.53
2017-11-16T14:59:19.890Z,22.50
2017-11-16T15:01:49.030Z,22.87
2017-11-16T15:04:16.630Z,24.50
2017-11-16T15:06:44.331Z,20.43
2017-11-16T15:09:12.701Z,23.57
2017-11-16T15:11:40.297Z,22.10
2017-11-16T15:14:07.914Z,19.97
2017-11-16T15:16:35.590Z,22.80
2017-11-16T15:19:04.071Z,20.50
2017-11-16T15:21:31.670Z,21.50
2017-11-16T15:23:59.294Z,19.20
2017-11-16T15:26:26.963Z,21.27
2017-11-16T15:28:55.357Z,22.17
2017-11-16T15:31:23.723Z,21.13
2017-11-16T15:33:52.118Z,19.67
2017-11-16T15:36:20.573Z,21.37
2017-11-16T15:38:48.189Z,21.10
2017-11-16T15:41:15.805Z,23.33
2017-11-16T15:43:44.222Z,23.87
2017-11-16T15:46:11.841Z,20.90
2017-11-16T15:48:39.443Z,20.77
2017-11-16T15:51:07.074Z,21.73
2017-11-16T15:53:35.470Z,26.00
2017-11-16T15:56:03.862Z,23.40
2017-11-16T15:58:31.458Z,24.67
2017-11-16T16:00:59.149Z,27.50
2017-11-16T16:03:26.817Z,25.67
2017-11-16T16:05:54.436Z,23.40
2017-11-16T16:08:22.039Z,24.20
2017-11-16T16:10:50.523Z,24.73
2017-11-16T16:13:18.181Z,24.13
2017-11-16T16:15:45.798Z,24.53
2017-11-16T16:18:13.409Z,22.93
2017-11-16T16:20:41.038Z,23.37
2017-11-16T16:23:08.729Z,24.17
2017-11-16T16:25:36.395Z,24.90
2017-11-16T16:28:04.020Z,24.20
2017-11-16T16:30:31.726Z,21.50
2017-11-16T16:32:59.345Z,22.57
2017-11-16T16:35:27.047Z,23.13
2017-11-16T16:37:54.732Z,21.37
2017-11-16T16:40:23.115Z,24.20
2017-11-16T16:45:23.354Z,24.70
2017-11-16T16:47:51.733Z,24.57
2017-11-16T16:50:20.089Z,24.03
2017-11-16T16:52:49.218Z,23.07
2017-11-16T16:55:16.818Z,21.10
2017-11-16T16:57:44.580Z,21.73
2017-11-16T17:00:12.278Z,22.87
2017-11-16T17:02:39.893Z,22.40
2017-11-16T17:05:07.565Z,24.67
2017-11-16T17:07:35.264Z,24.80
2017-11-16T17:10:02.863Z,24.37
2017-11-16T17:12:30.489Z,24.50
2017-11-16T17:14:58.105Z,23.23
2017-11-16T17:17:25.713Z,26.07
2017-11-16T17:19:53.377Z,25.60
2017-11-16T17:22:21.047Z,26.10
2017-11-16T17:24:49.525Z,24.97
2017-11-16T17:27:17.121Z,23.60
2017-11-16T17:29:44.751Z,23.83
2017-11-16T17:32:12.353Z,24.80
2017-11-16T17:34:39.970Z,25.20
2017-11-16T17:37:07.639Z,27.43
2017-11-16T17:39:36.030Z,24.43
2017-11-16T17:42:04.502Z,23.93
2017-11-16T17:44:32.874Z,24.60
2017-11-16T17:47:00.503Z,23.10
2017-11-16T17:49:28.101Z,25.53
2017-11-16T17:51:55.726Z,21.67
2017-11-16T17:54:23.433Z,26.00
2017-11-16T17:56:51.836Z,25.47
2017-11-16T17:59:19.435Z,26.50
2017-11-16T18:01:47.060Z,25.07
2017-11-16T18:04:14.657Z,24.77
2017-11-16T18:06:42.350Z,25.90
2017-11-16T18:09:09.945Z,27.60
2017-11-16T18:11:37.563Z,25.53
2017-11-16T18:14:05.245Z,23.60
2017-11-16T18:16:32.909Z,27.23
2017-11-16T18:19:01.274Z,26.73
2017-11-16T18:21:29.741Z,24.43
2017-11-16T18:23:57.340Z,26.30
2017-11-16T18:26:25.701Z,27.20
2017-11-16T18:28:53.384Z,25.90
2017-11-16T18:31:21.761Z,24.43
2017-11-16T18:33:50.151Z,26.20
2017-11-16T18:36:18.530Z,24.43
2017-11-16T18:38:46.989Z,24.43
2017-11-16T18:41:15.355Z,30.00
2017-11-16T18:43:44.487Z,26.60
2017-11-16T18:46:12.859Z,25.87
2017-11-16T18:48:41.246Z,26.90
2017-11-16T18:51:09.605Z,24.70
2017-11-16T18:53:38.095Z,28.00
2017-11-16T18:56:06.458Z,26.20
2017-11-16T18:58:34.074Z,23.97
2017-11-16T19:01:01.694Z,25.53
2017-11-16T19:03:30.062Z,25.47
2017-11-16T19:05:57.736Z,25.23
2017-11-16T19:08:25.389Z,24.40
2017-11-16T19:10:53.010Z,25.67
2017-11-16T19:13:20.617Z,23.47
2017-11-16T19:15:48.278Z,23.93
2017-11-16T19:18:15.870Z,23.73
2017-11-16T19:20:44.325Z,25.10
2017-11-16T19:23:11.972Z,22.47
2017-11-16T19:25:39.654Z,24.10
2017-11-16T19:28:07.314Z,24.60
2017-11-16T19:30:34.930Z,25.73
2017-11-16T19:33:02.526Z,27.17
2017-11-16T19:35:30.914Z,30.03
2017-11-16T19:37:58.585Z,24.00
2017-11-16T19:40:26.241Z,26.20
2017-11-16T19:42:53.838Z,26.73
2017-11-16T19:45:21.451Z,30.30
2017-11-16T19:47:49.829Z,26.73
2017-11-16T19:50:17.509Z,33.27
2017-11-16T19:52:45.168Z,31.13
2017-11-16T19:55:12.762Z,36.93
2017-11-16T19:57:40.503Z,30.87
2017-11-16T20:00:08.870Z,29.57
2017-11-16T20:02:37.253Z,27.60
2017-11-16T20:05:04.923Z,30.10
2017-11-16T20:07:34.045Z,27.13
2017-11-16T20:10:02.415Z,27.10
2017-11-16T20:12:30.802Z,27.17
2017-11-16T20:14:59.262Z,27.83
2017-11-16T20:17:27.653Z,25.70
2017-11-16T20:19:56.021Z,27.57
2017-11-16T20:22:23.677Z,26.80
2017-11-16T20:24:51.274Z,27.57
2017-11-16T20:27:18.914Z,29.07
2017-11-16T20:29:47.278Z,26.83
2017-11-16T20:32:14.941Z,26.80
2017-11-16T20:34:42.562Z,24.80
2017-11-16T20:37:10.966Z,26.80
2017-11-16T20:39:53.470Z,24.17
2017-11-16T20:42:26.698Z,24.20
2017-11-16T20:44:59.942Z,28.03
2017-11-16T20:50:42.564Z,26.93
2017-11-16T20:53:10.163Z,25.27
2017-11-16T20:55:40.403Z,23.87
2017-11-16T20:58:08.003Z,26.47
2017-11-16T21:00:35.622Z,26.87
2017-11-16T21:03:03.224Z,24.70
2017-11-16T21:05:30.845Z,25.57
2017-11-16T21:07:58.452Z,23.97
2017-11-16T21:10:26.069Z,23.63
2017-11-16T21:12:53.671Z,27.50
2017-11-16T21:15:21.401Z,27.73
2017-11-16T21:17:49.061Z,26.97
2017-11-16T21:20:16.729Z,26.50
2017-11-16T21:22:44.321Z,26.37
2017-11-16T21:25:11.950Z,25.80
2017-11-16T21:27:39.614Z,26.50
2017-11-16T21:30:07.247Z,28.10
2017-11-16T21:32:34.853Z,27.63
2017-11-16T21:35:03.218Z,26.10
2017-11-16T21:37:30.842Z,26.60
2017-11-16T21:39:58.550Z,26.17
2017-11-16T21:42:27.026Z,27.10
2017-11-16T21:44:54.640Z,27.83
2017-11-16T21:47:22.261Z,27.60
2017-11-16T21:49:50.716Z,26.40
2017-11-16T21:52:18.333Z,26.47
2017-11-16T21:54:45.959Z,25.70
2017-11-16T21:57:13.626Z,30.33
2017-11-16T21:59:41.993Z,27.47
2017-11-16T22:02:09.662Z,27.30
2017-11-16T22:04:38.041Z,27.70
2017-11-16T22:07:05.706Z,28.77
2017-11-16T22:09:33.298Z,28.93
2017-11-16T22:12:01.040Z,28.37
2017-11-16T22:14:29.509Z,28.10
2017-11-16T22:16:58.704Z,27.30
2017-11-16T22:19:26.298Z,27.47
2017-11-16T22:21:54.762Z,29.77
2017-11-16T22:24:23.237Z,28.40
2017-11-16T22:26:51.637Z,26.03
2017-11-16T22:29:20.098Z,27.60
2017-11-16T22:31:47.756Z,27.30
2017-11-16T22:34:15.351Z,29.40
2017-11-16T22:36:42.985Z,27.07
2017-11-16T22:39:10.645Z,28.20
2017-11-16T22:41:38.299Z,26.80
2017-11-16T22:44:06.685Z,26.37
2017-11-16T22:46:35.082Z,28.50
2017-11-16T22:49:03.546Z,27.20
2017-11-16T22:51:31.910Z,26.50
2017-11-16T22:53:59.598Z,27.63
2017-11-16T22:56:27.961Z,26.70
2017-11-16T22:58:56.458Z,28.47
2017-11-16T23:01:24.054Z,28.70
2017-11-16T23:03:51.673Z,29.23
2017-11-16T23:06:19.337Z,26.73
2017-11-16T23:08:46.963Z,29.27
2017-11-16T23:11:14.674Z,26.67
2017-11-16T23:13:42.310Z,28.07
2017-11-16T23:16:09.915Z,28.07
2017-11-16T23:18:38.370Z,27.00
2017-11-16T23:21:05.991Z,28.73
2017-11-16T23:23:33.701Z,29.77
2017-11-16T23:26:01.322Z,33.60
2017-11-16T23:28:29.039Z,28.03
2017-11-16T23:30:57.507Z,31.60
2017-11-16T23:33:25.165Z,30.40
2017-11-16T23:35:53.554Z,32.53
2017-11-16T23:38:21.146Z,29.30
2017-11-16T23:40:48.881Z,30.80
2017-11-16T23:43:16.477Z,33.33
2017-11-16T23:45:44.097Z,31.77
2017-11-16T23:48:11.695Z,31.10
2017-11-16T23:50:39.314Z,32.43
2017-11-16T23:53:08.530Z,33.60
2017-11-16T23:55:37.001Z,31.60
2017-11-16T23:58:04.666Z,32.43
